Time;durP1;ratioP1;P1;durP2;ratioP2;P2;SDS_P1;SDS_P2;PMS_P1;PMS_P2;Temp;Humidity;BMP_temperature;BMP_pressure;BME280_temperature;BME280_humidity;BME280_pressure;Samples;Min_cycle;Max_cycle;Signal;HPM_P1;HPM_P2
2021/09/27 00:00:08;;;;;;;41.67;27.13;;;;;;;;;;4345895;33;20278;-78
2021/09/27 00:02:34;;;;;;;42.60;27.13;;;;;;;;;;4347280;32;20171;-78
2021/09/27 00:04:59;;;;;;;42.25;28.15;;;;;;;;;;4346015;33;20198;-78
2021/09/27 00:07:27;;;;;;;42.13;27.42;;;;;;;;;;4345532;33;20155;-78
2021/09/27 00:09:53;;;;;;;47.22;27.00;;;;;;;;;;4346299;33;20167;-78
2021/09/27 00:12:18;;;;;;;48.15;27.67;;;;;;;;;;4345726;33;20647;-78
2021/09/27 00:14:43;;;;;;;37.40;26.60;;;;;;;;;;4345523;33;20513;-78
2021/09/27 00:17:09;;;;;;;45.58;28.33;;;;;;;;;;4345347;33;20210;-77
2021/09/27 00:19:35;;;;;;;36.95;25.62;;;;;;;;;;4345812;33;20194;-78
2021/09/27 00:22:04;;;;;;;43.28;27.73;;;;;;;;;;4345560;33;20182;-78
2021/09/27 00:24:32;;;;;;;39.83;26.83;;;;;;;;;;4342322;33;20164;-78
2021/09/27 00:26:58;;;;;;;40.83;27.25;;;;;;;;;;4345374;33;20163;-78
2021/09/27 00:29:23;;;;;;;40.95;26.20;;;;;;;;;;4345653;33;20218;-78
2021/09/27 00:31:57;;;;;;;45.05;28.30;;;;;;;;;;4344999;33;20164;-78
2021/09/27 00:34:23;;;;;;;42.40;25.33;;;;;;;;;;4345183;33;20233;-78
2021/09/27 00:36:48;;;;;;;37.95;26.25;;;;;;;;;;4345632;33;20178;-78
2021/09/27 00:39:17;;;;;;;40.80;26.92;;;;;;;;;;4345008;33;20500;-78
2021/09/27 00:41:42;;;;;;;44.50;27.48;;;;;;;;;;4345232;33;20463;-78
2021/09/27 00:44:18;;;;;;;44.53;28.38;;;;;;;;;;4345140;33;20233;-78
2021/09/27 00:46:53;;;;;;;42.47;28.15;;;;;;;;;;4333197;33;20193;-78
2021/09/27 00:49:19;;;;;;;36.25;25.17;;;;;;;;;;4342331;33;20229;-78
2021/09/27 00:51:45;;;;;;;38.20;24.50;;;;;;;;;;4344796;33;20178;-78
2021/09/27 00:54:18;;;;;;;44.25;28.35;;;;;;;;;;4345986;33;20190;-78
2021/09/27 00:56:58;;;;;;;45.20;24.98;;;;;;;;;;4335176;33;20248;-78
2021/09/27 00:59:27;;;;;;;42.33;27.98;;;;;;;;;;4346477;33;20170;-78
2021/09/27 01:01:53;;;;;;;41.37;26.30;;;;;;;;;;4332954;33;20186;-79
2021/09/27 01:04:29;;;;;;;44.78;26.42;;;;;;;;;;4332467;33;20167;-79
2021/09/27 01:07:08;;;;;;;38.00;24.27;;;;;;;;;;4332399;33;20171;-79
2021/09/27 01:09:53;;;;;;;44.85;26.62;;;;;;;;;;4346164;33;20527;-79
2021/09/27 01:12:41;;;;;;;43.20;26.98;;;;;;;;;;4332785;33;20182;-79
2021/09/27 01:15:26;;;;;;;49.15;28.67;;;;;;;;;;4333017;33;20156;-79
2021/09/27 01:18:09;;;;;;;47.90;28.90;;;;;;;;;;4332079;33;20232;-78
2021/09/27 01:20:53;;;;;;;44.40;27.92;;;;;;;;;;4346484;33;20131;-78
2021/09/27 01:23:18;;;;;;;51.22;30.25;;;;;;;;;;4320933;33;20190;-78
2021/09/27 01:25:44;;;;;;;50.33;29.95;;;;;;;;;;4332012;33;20191;-79
2021/09/27 01:28:28;;;;;;;46.85;28.20;;;;;;;;;;4332643;33;20159;-79
2021/09/27 01:31:16;;;;;;;44.65;28.67;;;;;;;;;;4332599;33;20255;-78
2021/09/27 01:34:01;;;;;;;53.50;30.58;;;;;;;;;;4322797;33;20151;-78
2021/09/27 01:36:29;;;;;;;53.42;30.00;;;;;;;;;;4333106;33;20155;-78
2021/09/27 01:39:05;;;;;;;53.10;31.08;;;;;;;;;;4332372;33;20570;-79
2021/09/27 01:41:33;;;;;;;52.22;29.90;;;;;;;;;;4332501;33;20159;-78
2021/09/27 01:44:17;;;;;;;49.28;30.17;;;;;;;;;;4322759;33;20178;-78
2021/09/27 01:46:45;;;;;;;54.78;31.30;;;;;;;;;;4331974;33;20167;-78
2021/09/27 01:49:31;;;;;;;52.42;30.20;;;;;;;;;;4336027;33;20563;-78
2021/09/27 01:52:00;;;;;;;54.88;31.17;;;;;;;;;;4329765;33;20152;-78
2021/09/27 01:54:48;;;;;;;53.55;30.62;;;;;;;;;;4331908;33;20217;-78
2021/09/27 01:57:21;;;;;;;51.33;30.05;;;;;;;;;;4317946;33;20188;-78
2021/09/27 02:00:05;;;;;;;49.40;29.50;;;;;;;;;;4332006;33;20151;-78
2021/09/27 02:02:30;;;;;;;54.22;30.77;;;;;;;;;;4331825;33;20193;-78
2021/09/27 02:05:06;;;;;;;54.35;30.08;;;;;;;;;;4331806;33;20605;-78
2021/09/27 02:07:35;;;;;;;56.65;29.37;;;;;;;;;;4331734;33;20170;-78
2021/09/27 02:10:07;;;;;;;57.78;33.97;;;;;;;;;;4332000;33;20217;-78
2021/09/27 02:12:44;;;;;;;60.08;32.20;;;;;;;;;;4314588;33;20153;-78
2021/09/27 02:15:32;;;;;;;54.05;30.00;;;;;;;;;;4316318;33;20218;-78
2021/09/27 02:18:31;;;;;;;50.33;29.90;;;;;;;;;;4330845;33;20542;-78
2021/09/27 02:21:01;;;;;;;57.25;30.65;;;;;;;;;;4300071;33;20233;-78
2021/09/27 02:23:46;;;;;;;53.75;29.98;;;;;;;;;;4317312;33;20226;-78
2021/09/27 02:26:13;;;;;;;61.15;32.35;;;;;;;;;;4315857;33;20186;-78
2021/09/27 02:31:36;;;;;;;59.85;31.40;;;;;;;;;;4330780;33;20178;-77
2021/09/27 02:37:18;;;;;;;57.97;31.35;;;;;;;;;;4320036;33;20207;-78
2021/09/27 02:40:05;;;;;;;55.72;31.83;;;;;;;;;;4316903;33;20195;-78
2021/09/27 02:42:45;;;;;;;67.10;34.45;;;;;;;;;;4316954;33;20155;-77
2021/09/27 02:45:11;;;;;;;60.12;34.63;;;;;;;;;;4317268;33;20159;-78
2021/09/27 02:47:55;;;;;;;52.38;30.77;;;;;;;;;;4316949;33;20561;-78
2021/09/27 02:50:27;;;;;;;55.30;31.08;;;;;;;;;;4325432;33;20221;-78
2021/09/27 02:52:53;;;;;;;61.47;34.78;;;;;;;;;;4331743;33;20159;-78
2021/09/27 02:55:20;;;;;;;60.30;33.72;;;;;;;;;;4334508;33;20611;-78
2021/09/27 03:00:56;;;;;;;60.63;32.70;;;;;;;;;;4347978;33;20146;-78
2021/09/27 03:03:41;;;;;;;67.70;36.00;;;;;;;;;;4334125;33;20163;-78
2021/09/27 03:06:27;;;;;;;;;;;;;;;;;;;;;
2021/09/27 03:09:03;;;;;;;65.37;33.88;;;;;;;;;;4348249;33;20131;-78
2021/09/27 03:11:38;;;;;;;67.97;35.85;;;;;;;;;;4333500;33;20190;-78
2021/09/27 03:15:22;;;;;;;71.10;37.60;;;;;;;;;;4332236;33;20505;-78
2021/09/27 03:17:37;;;;;;;;;;;;;;;;;;;;;
2021/09/27 03:20:21;;;;;;;68.53;36.85;;;;;;;;;;4343453;33;20151;-78
2021/09/27 03:23:06;;;;;;;69.45;33.95;;;;;;;;;;4334132;33;20175;-79
2021/09/27 03:25:34;;;;;;;71.78;37.58;;;;;;;;;;4333706;33;20163;-78
2021/09/27 03:28:18;;;;;;;82.37;40.25;;;;;;;;;;4333965;33;20513;-78
2021/09/27 03:31:03;;;;;;;72.30;38.90;;;;;;;;;;4333660;33;20237;-79
2021/09/27 03:33:40;;;;;;;77.62;41.88;;;;;;;;;;4333986;33;20547;-79
2021/09/27 03:36:05;;;;;;;75.47;39.33;;;;;;;;;;4334139;33;20162;-77
2021/09/27 03:38:50;;;;;;;79.85;40.40;;;;;;;;;;4333723;33;20164;-78
2021/09/27 03:41:33;;;;;;;84.82;42.17;;;;;;;;;;4333176;33;20163;-78
2021/09/27 03:44:20;;;;;;;77.20;39.42;;;;;;;;;;4334287;33;20167;-78
2021/09/27 03:47:04;;;;;;;77.55;40.15;;;;;;;;;;4334145;33;20159;-78
2021/09/27 03:49:34;;;;;;;76.68;39.08;;;;;;;;;;4333271;33;20258;-78
2021/09/27 03:52:05;;;;;;;90.00;43.47;;;;;;;;;;4333740;33;20470;-78
2021/09/27 03:54:33;;;;;;;82.55;42.10;;;;;;;;;;4319856;33;20171;-78
2021/09/27 03:57:06;;;;;;;87.15;41.85;;;;;;;;;;4331611;33;20497;-77
2021/09/27 03:59:31;;;;;;;75.78;38.58;;;;;;;;;;4333753;33;20586;-78
2021/09/27 04:02:40;;;;;;;86.75;43.92;;;;;;;;;;4333432;33;20217;-78
2021/09/27 04:05:06;;;;;;;90.87;40.42;;;;;;;;;;4345645;33;20214;-79
2021/09/27 04:08:13;;;;;;;95.93;44.35;;;;;;;;;;4347374;33;20135;-79
2021/09/27 04:10:58;;;;;;;86.60;40.53;;;;;;;;;;4283397;33;20628;-79
2021/09/27 04:13:32;;;;;;;87.57;41.55;;;;;;;;;;4319492;33;20536;-77
2021/09/27 04:16:01;;;;;;;80.22;39.90;;;;;;;;;;4319810;33;20628;-78
2021/09/27 04:18:38;;;;;;;86.60;40.20;;;;;;;;;;4320016;33;20167;-78
2021/09/27 04:21:23;;;;;;;110.68;48.10;;;;;;;;;;4320564;33;20545;-78
2021/09/27 04:24:03;;;;;;;95.35;42.75;;;;;;;;;;4320881;33;20203;-79
2021/09/27 04:26:49;;;;;;;85.87;40.53;;;;;;;;;;4320720;33;20156;-78
2021/09/27 04:29:37;;;;;;;96.15;43.30;;;;;;;;;;4321590;33;20211;-78
2021/09/27 04:32:02;;;;;;;105.22;48.30;;;;;;;;;;4322009;33;20163;-78
2021/09/27 04:34:35;;;;;;;110.18;46.65;;;;;;;;;;4321840;33;20194;-77
2021/09/27 04:37:01;;;;;;;101.72;46.63;;;;;;;;;;4321534;33;20187;-79
2021/09/27 04:39:27;;;;;;;99.75;45.35;;;;;;;;;;4328554;33;20159;-79
2021/09/27 04:42:02;;;;;;;85.82;41.97;;;;;;;;;;4332538;33;20195;-79
2021/09/27 04:44:33;;;;;;;117.43;49.83;;;;;;;;;;4331692;33;20167;-79
2021/09/27 04:47:12;;;;;;;101.22;44.72;;;;;;;;;;4331482;33;20202;-78
2021/09/27 04:49:57;;;;;;;102.68;42.78;;;;;;;;;;4333279;33;20162;-80
2021/09/27 04:52:42;;;;;;;101.40;43.33;;;;;;;;;;4333207;33;20171;-79
2021/09/27 04:55:17;;;;;;;104.47;45.22;;;;;;;;;;4333136;33;20175;-78
2021/09/27 04:57:57;;;;;;;99.13;44.33;;;;;;;;;;4332931;33;20238;-78
2021/09/27 05:00:31;;;;;;;119.03;45.45;;;;;;;;;;4332907;33;20171;-80
2021/09/27 05:03:19;;;;;;;88.30;38.90;;;;;;;;;;4332787;33;20178;-78
2021/09/27 05:05:49;;;;;;;102.87;43.95;;;;;;;;;;4346541;33;20239;-78
2021/09/27 05:08:31;;;;;;;101.35;41.83;;;;;;;;;;4344789;33;20171;-78
2021/09/27 05:11:08;;;;;;;127.93;49.55;;;;;;;;;;4329009;33;20160;-79
2021/09/27 05:13:40;;;;;;;103.22;43.83;;;;;;;;;;4332759;33;20194;-78
2021/09/27 05:16:20;;;;;;;99.87;42.40;;;;;;;;;;4331882;33;20159;-78
2021/09/27 05:19:05;;;;;;;105.82;45.47;;;;;;;;;;4316138;33;20175;-76
2021/09/27 05:21:45;;;;;;;102.00;41.95;;;;;;;;;;4329858;33;20217;-77
2021/09/27 05:24:28;;;;;;;107.00;43.25;;;;;;;;;;4320249;33;20585;-76
2021/09/27 05:27:01;;;;;;;96.95;42.67;;;;;;;;;;4334772;33;20329;-76
2021/09/27 05:29:42;;;;;;;89.28;40.42;;;;;;;;;;4317352;33;20187;-75
2021/09/27 05:32:18;;;;;;;89.55;42.55;;;;;;;;;;4342568;33;20234;-76
2021/09/27 05:35:03;;;;;;;92.50;42.20;;;;;;;;;;4331850;33;20155;-75
2021/09/27 05:37:31;;;;;;;75.95;37.38;;;;;;;;;;4332279;33;20168;-75
2021/09/27 05:40:06;;;;;;;87.03;38.00;;;;;;;;;;4332073;33;20263;-75
2021/09/27 05:42:54;;;;;;;94.37;42.95;;;;;;;;;;4332551;33;20465;-75
2021/09/27 05:45:25;;;;;;;92.78;40.50;;;;;;;;;;4316879;33;20194;-76
2021/09/27 05:47:57;;;;;;;89.50;40.45;;;;;;;;;;4332214;33;20156;-74
2021/09/27 05:50:29;;;;;;;84.05;37.92;;;;;;;;;;4346352;33;20147;-75
2021/09/27 05:53:17;;;;;;;90.38;39.40;;;;;;;;;;4332313;33;20194;-75
2021/09/27 05:55:58;;;;;;;88.15;40.08;;;;;;;;;;4326004;33;20241;-75
2021/09/27 05:58:31;;;;;;;74.47;34.42;;;;;;;;;;4341546;33;20206;-75
2021/09/27 06:00:56;;;;;;;79.45;38.30;;;;;;;;;;4330457;33;20156;-75
2021/09/27 06:03:38;;;;;;;77.35;34.65;;;;;;;;;;4328916;33;20155;-74
2021/09/27 06:06:24;;;;;;;84.25;39.53;;;;;;;;;;4327694;33;20257;-76
2021/09/27 06:08:49;;;;;;;77.40;37.13;;;;;;;;;;4317075;33;20202;-78
2021/09/27 06:11:37;;;;;;;75.18;37.22;;;;;;;;;;4330486;33;20132;-78
2021/09/27 06:14:03;;;;;;;75.00;37.47;;;;;;;;;;4317358;33;20186;-77
2021/09/27 06:16:48;;;;;;;65.95;33.58;;;;;;;;;;4317306;33;20155;-77
2021/09/27 06:19:15;;;;;;;59.75;33.20;;;;;;;;;;4317883;33;20160;-77
2021/09/27 06:22:11;;;;;;;52.38;30.30;;;;;;;;;;4328125;33;20156;-74
2021/09/27 06:24:43;;;;;;;59.00;30.50;;;;;;;;;;4331231;33;20158;-77
2021/09/27 06:27:10;;;;;;;54.35;28.62;;;;;;;;;;4317630;33;20230;-76
2021/09/27 06:29:44;;;;;;;52.20;29.90;;;;;;;;;;4323737;33;20604;-76
2021/09/27 06:32:17;;;;;;;54.83;30.37;;;;;;;;;;4329157;33;20156;-78
2021/09/27 06:34:51;;;;;;;48.28;28.27;;;;;;;;;;4333094;33;20182;-77
2021/09/27 06:37:21;;;;;;;47.90;29.48;;;;;;;;;;4343994;33;20151;-76
2021/09/27 06:39:46;;;;;;;48.45;28.48;;;;;;;;;;4321576;33;20155;-75
2021/09/27 06:42:12;;;;;;;50.85;29.90;;;;;;;;;;4329012;33;20156;-77
2021/09/27 06:44:38;;;;;;;49.67;28.90;;;;;;;;;;4331758;33;20573;-77
2021/09/27 06:47:03;;;;;;;43.55;27.50;;;;;;;;;;4331957;33;20239;-76
2021/09/27 06:49:28;;;;;;;49.58;28.65;;;;;;;;;;4331751;33;20160;-79
2021/09/27 06:51:55;;;;;;;44.30;26.35;;;;;;;;;;4333144;33;20226;-76
2021/09/27 06:54:21;;;;;;;42.17;25.92;;;;;;;;;;4334487;33;20151;-78
2021/09/27 06:56:49;;;;;;;39.50;24.80;;;;;;;;;;4334355;33;20222;-77
2021/09/27 06:59:15;;;;;;;40.90;23.52;;;;;;;;;;4348390;33;20166;-77
2021/09/27 07:01:41;;;;;;;39.80;22.42;;;;;;;;;;4340986;33;20562;-77
2021/09/27 07:04:07;;;;;;;34.20;21.83;;;;;;;;;;4338693;33;20163;-78
2021/09/27 07:06:35;;;;;;;33.88;22.50;;;;;;;;;;4334261;33;20160;-77
2021/09/27 07:09:01;;;;;;;33.40;22.17;;;;;;;;;;4333942;33;20168;-78
2021/09/27 07:11:29;;;;;;;34.78;21.85;;;;;;;;;;4333506;33;20607;-78
2021/09/27 07:13:54;;;;;;;31.58;21.67;;;;;;;;;;4334327;33;20236;-74
2021/09/27 07:16:19;;;;;;;31.30;21.75;;;;;;;;;;4347600;33;20136;-78
2021/09/27 07:18:45;;;;;;;30.45;19.48;;;;;;;;;;4349502;33;20174;-76
2021/09/27 07:21:11;;;;;;;31.70;20.95;;;;;;;;;;4333444;33;20189;-76
2021/09/27 07:23:57;;;;;;;31.58;20.00;;;;;;;;;;4347262;33;20488;-77
2021/09/27 07:26:22;;;;;;;28.33;19.15;;;;;;;;;;4333896;33;20174;-77
2021/09/27 07:28:52;;;;;;;29.25;19.70;;;;;;;;;;4333668;33;20159;-76
2021/09/27 07:31:18;;;;;;;33.33;22.23;;;;;;;;;;4334172;33;20186;-76
2021/09/27 07:33:43;;;;;;;29.80;20.00;;;;;;;;;;4333479;33;20183;-77
2021/09/27 07:36:19;;;;;;;34.97;21.33;;;;;;;;;;4346817;33;20577;-77
2021/09/27 07:38:47;;;;;;;27.35;18.05;;;;;;;;;;4334470;33;20573;-77
2021/09/27 07:41:13;;;;;;;30.92;19.45;;;;;;;;;;4333335;33;20225;-76
2021/09/27 07:43:39;;;;;;;29.52;19.27;;;;;;;;;;4333832;33;20171;-76
2021/09/27 07:46:05;;;;;;;31.25;19.87;;;;;;;;;;4333614;33;20628;-76
2021/09/27 07:48:36;;;;;;;30.12;19.40;;;;;;;;;;4333402;33;20173;-76
2021/09/27 07:51:10;;;;;;;29.80;20.27;;;;;;;;;;4333482;33;20155;-77
2021/09/27 07:53:38;;;;;;;32.03;20.50;;;;;;;;;;4347111;33;20142;-76
2021/09/27 07:56:03;;;;;;;30.23;21.08;;;;;;;;;;4333184;33;20174;-78
2021/09/27 07:58:35;;;;;;;31.85;20.40;;;;;;;;;;4333786;33;20156;-77
2021/09/27 08:01:20;;;;;;;28.17;19.80;;;;;;;;;;4347019;33;20188;-76
2021/09/27 08:03:46;;;;;;;29.83;19.20;;;;;;;;;;4330279;33;20175;-76
2021/09/27 08:06:12;;;;;;;31.10;21.23;;;;;;;;;;4318546;33;20542;-78
2021/09/27 08:08:38;;;;;;;29.33;20.65;;;;;;;;;;4306332;33;20168;-76
2021/09/27 08:11:03;;;;;;;29.35;21.00;;;;;;;;;;4307610;33;20160;-77
2021/09/27 08:13:28;;;;;;;28.15;20.25;;;;;;;;;;4318176;33;20163;-77
2021/09/27 08:15:55;;;;;;;30.73;19.87;;;;;;;;;;4314417;33;20767;-76
2021/09/27 08:18:22;;;;;;;30.90;22.77;;;;;;;;;;4331626;33;20136;-76
2021/09/27 08:21:14;;;;;;;30.95;19.92;;;;;;;;;;4330197;33;20495;-78
2021/09/27 08:23:39;;;;;;;31.20;20.58;;;;;;;;;;4300041;33;20179;-76
2021/09/27 08:26:07;;;;;;;32.10;21.02;;;;;;;;;;4307657;33;20477;-77
2021/09/27 08:28:43;;;;;;;30.50;20.65;;;;;;;;;;4326904;33;20215;-79
2021/09/27 08:31:14;;;;;;;27.92;20.25;;;;;;;;;;4317780;33;20155;-77
2021/09/27 08:33:41;;;;;;;31.67;22.00;;;;;;;;;;4330597;33;20165;-77
2021/09/27 08:36:11;;;;;;;29.42;19.00;;;;;;;;;;4311300;33;20160;-78
2021/09/27 08:38:37;;;;;;;28.50;21.25;;;;;;;;;;4304110;33;20157;-78
2021/09/27 08:41:21;;;;;;;27.35;17.83;;;;;;;;;;4318770;33;20152;-77
2021/09/27 08:43:54;;;;;;;25.75;17.80;;;;;;;;;;4305801;33;20271;-76
2021/09/27 08:46:48;;;;;;;;;;;;;;;;;;;;;
2021/09/27 08:49:59;;;;;;;23.67;16.73;;;;;;;;;;4321445;33;20148;-75
2021/09/27 08:52:31;;;;;;;21.92;16.62;;;;;;;;;;4242992;33;20256;-76
2021/09/27 08:55:19;;;;;;;23.95;17.08;;;;;;;;;;4232941;33;20240;-77
2021/09/27 08:57:44;;;;;;;19.25;14.35;;;;;;;;;;4286239;33;20207;-76
2021/09/27 09:00:13;;;;;;;19.73;14.63;;;;;;;;;;4329810;33;20206;-76
2021/09/27 09:02:46;;;;;;;20.12;14.25;;;;;;;;;;4317745;33;20168;-76
2021/09/27 09:05:21;;;;;;;19.95;13.45;;;;;;;;;;4323441;33;20191;-76
2021/09/27 09:08:22;;;;;;;20.60;13.18;;;;;;;;;;4332320;33;20201;-77
2021/09/27 09:10:48;;;;;;;19.17;13.45;;;;;;;;;;4332591;33;20588;-77
2021/09/27 09:13:20;;;;;;;17.35;12.50;;;;;;;;;;4332110;33;20209;-77
2021/09/27 09:15:54;;;;;;;16.70;11.65;;;;;;;;;;4344597;33;20210;-76
2021/09/27 09:18:27;;;;;;;17.02;12.07;;;;;;;;;;4336884;33;20602;-76
2021/09/27 09:20:55;;;;;;;14.98;11.55;;;;;;;;;;4344990;33;20156;-77
2021/09/27 09:23:39;;;;;;;19.23;11.93;;;;;;;;;;4337964;33;20242;-76
2021/09/27 09:26:06;;;;;;;17.85;12.32;;;;;;;;;;4334789;33;20639;-75
2021/09/27 09:28:41;;;;;;;15.40;11.05;;;;;;;;;;4342044;33;20593;-76
2021/09/27 09:31:21;;;;;;;14.20;11.00;;;;;;;;;;4332225;33;20213;-76
2021/09/27 09:33:57;;;;;;;16.35;10.18;;;;;;;;;;4335216;33;20155;-77
2021/09/27 09:36:27;;;;;;;15.45;10.60;;;;;;;;;;4331706;33;20166;-78
2021/09/27 09:38:55;;;;;;;15.98;10.00;;;;;;;;;;4343993;33;20171;-77
2021/09/27 09:41:20;;;;;;;15.90;10.98;;;;;;;;;;4336740;33;20156;-76
2021/09/27 09:45:03;;;;;;;13.85;9.48;;;;;;;;;;4333083;33;20627;-77
2021/09/27 09:47:08;;;;;;;14.65;10.02;;;;;;;;;;4337325;32;20200;-78
2021/09/27 09:50:02;;;;;;;15.95;9.88;;;;;;;;;;4324341;33;20205;-76
2021/09/27 09:52:58;;;;;;;17.95;10.00;;;;;;;;;;4326444;33;20226;-77
2021/09/27 09:55:39;;;;;;;13.02;8.35;;;;;;;;;;4342423;33;20174;-78
2021/09/27 09:58:09;;;;;;;11.00;8.57;;;;;;;;;;4334857;33;20252;-77
2021/09/27 10:00:43;;;;;;;12.43;8.20;;;;;;;;;;4329155;33;20282;-77
2021/09/27 10:06:18;;;;;;;10.32;8.30;;;;;;;;;;4261289;33;20260;-76
2021/09/27 10:09:07;;;;;;;13.55;7.82;;;;;;;;;;4311132;33;20510;-76
2021/09/27 10:11:35;;;;;;;11.60;7.80;;;;;;;;;;4308861;33;20164;-77
2021/09/27 10:14:16;;;;;;;12.52;7.90;;;;;;;;;;4302731;33;20183;-77
2021/09/27 10:16:45;;;;;;;13.07;7.40;;;;;;;;;;4309783;33;20241;-77
2021/09/27 10:19:21;;;;;;;11.20;7.80;;;;;;;;;;4317547;33;20489;-77
2021/09/27 10:21:57;;;;;;;10.27;7.70;;;;;;;;;;4330289;33;20155;-77
2021/09/27 10:24:30;;;;;;;14.35;8.57;;;;;;;;;;4302887;33;20176;-77
2021/09/27 10:27:05;;;;;;;13.75;8.80;;;;;;;;;;4313570;33;20186;-76
2021/09/27 10:29:30;;;;;;;13.07;7.47;;;;;;;;;;4329877;33;20218;-76
2021/09/27 10:32:19;;;;;;;11.52;7.35;;;;;;;;;;4329494;33;20164;-76
2021/09/27 10:34:47;;;;;;;9.05;7.45;;;;;;;;;;4317029;33;20234;-76
2021/09/27 10:37:14;;;;;;;9.98;7.00;;;;;;;;;;4317477;33;20242;-76
2021/09/27 10:39:39;;;;;;;10.88;6.20;;;;;;;;;;4316490;33;20167;-77
2021/09/27 10:42:14;;;;;;;10.70;6.93;;;;;;;;;;4316950;33;20219;-77
2021/09/27 10:44:42;;;;;;;13.05;6.70;;;;;;;;;;4317510;33;20597;-76
2021/09/27 10:47:14;;;;;;;10.38;6.28;;;;;;;;;;4330294;33;20144;-77
2021/09/27 10:49:58;;;;;;;9.90;6.10;;;;;;;;;;4307555;33;20159;-78
2021/09/27 10:52:40;;;;;;;9.70;5.87;;;;;;;;;;4326120;33;20171;-76
2021/09/27 10:58:28;;;;;;;9.77;5.53;;;;;;;;;;4283246;33;20202;-77
2021/09/27 11:01:03;;;;;;;6.97;5.32;;;;;;;;;;4313225;33;20206;-77
2021/09/27 11:03:31;;;;;;;7.15;5.00;;;;;;;;;;4306264;33;20163;-77
2021/09/27 11:06:01;;;;;;;8.43;4.60;;;;;;;;;;4327381;33;20175;-78
2021/09/27 11:08:41;;;;;;;6.57;4.25;;;;;;;;;;4332169;33;20186;-78
2021/09/27 11:11:18;;;;;;;4.70;3.87;;;;;;;;;;4329142;33;20159;-77
2021/09/27 11:13:44;;;;;;;6.35;4.30;;;;;;;;;;4329335;33;20167;-77
2021/09/27 11:16:18;;;;;;;7.30;3.62;;;;;;;;;;4336918;33;20226;-77
2021/09/27 11:18:55;;;;;;;9.50;4.30;;;;;;;;;;4334694;33;20176;-77
2021/09/27 11:21:35;;;;;;;4.35;3.33;;;;;;;;;;4333557;33;20225;-78
2021/09/27 11:24:21;;;;;;;7.45;4.20;;;;;;;;;;4334221;33;20163;-77
2021/09/27 11:27:06;;;;;;;8.88;4.20;;;;;;;;;;4333431;33;20237;-78
2021/09/27 11:29:50;;;;;;;5.85;4.00;;;;;;;;;;4331666;33;20222;-77
2021/09/27 11:32:30;;;;;;;5.55;3.50;;;;;;;;;;4333541;33;20687;-78
2021/09/27 11:35:03;;;;;;;6.00;3.58;;;;;;;;;;4338056;33;20170;-76
2021/09/27 11:37:30;;;;;;;6.50;3.50;;;;;;;;;;4333847;33;20163;-77
2021/09/27 11:40:11;;;;;;;12.50;3.65;;;;;;;;;;4343693;33;20240;-77
2021/09/27 11:42:48;;;;;;;5.72;3.30;;;;;;;;;;4340883;33;20189;-77
2021/09/27 11:48:12;;;;;;;5.10;3.47;;;;;;;;;;4338781;33;20225;-78
2021/09/27 11:50:51;;;;;;;5.55;3.78;;;;;;;;;;4333451;33;20160;-76
2021/09/27 11:53:35;;;;;;;5.53;3.25;;;;;;;;;;4333849;33;20192;-77
2021/09/27 11:56:06;;;;;;;8.50;3.15;;;;;;;;;;4333503;33;20164;-76
2021/09/27 11:58:41;;;;;;;7.65;3.45;;;;;;;;;;4333655;33;20598;-76
2021/09/27 12:01:18;;;;;;;7.30;3.30;;;;;;;;;;4333361;33;20174;-76
2021/09/27 12:03:53;;;;;;;5.47;3.10;;;;;;;;;;4333386;33;20593;-77
2021/09/27 12:06:20;;;;;;;5.72;3.03;;;;;;;;;;4333163;33;20585;-78
2021/09/27 12:08:56;;;;;;;8.13;3.67;;;;;;;;;;4332995;33;20202;-78
2021/09/27 12:11:21;;;;;;;6.30;3.97;;;;;;;;;;4333774;33;20230;-77
2021/09/27 12:13:59;;;;;;;8.88;3.70;;;;;;;;;;4333068;33;20221;-78
2021/09/27 12:16:34;;;;;;;6.30;3.53;;;;;;;;;;4332090;33;20675;-76
2021/09/27 12:19:18;;;;;;;5.28;3.65;;;;;;;;;;4332943;33;20178;-76
2021/09/27 12:21:46;;;;;;;6.03;4.15;;;;;;;;;;4346457;33;20144;-77
2021/09/27 12:24:16;;;;;;;11.05;4.22;;;;;;;;;;4332935;33;20197;-78
2021/09/27 12:26:43;;;;;;;7.90;4.70;;;;;;;;;;4332648;33;20160;-77
2021/09/27 12:29:16;;;;;;;8.07;4.57;;;;;;;;;;4332722;33;20605;-77
2021/09/27 12:31:56;;;;;;;6.87;4.25;;;;;;;;;;4329132;33;20180;-77
2021/09/27 12:34:29;;;;;;;7.70;5.28;;;;;;;;;;4324073;33;20174;-79
2021/09/27 12:36:54;;;;;;;11.50;5.55;;;;;;;;;;4333012;33;20629;-77
2021/09/27 12:39:21;;;;;;;10.68;5.80;;;;;;;;;;4320617;33;20211;-77
2021/09/27 12:41:47;;;;;;;11.50;6.00;;;;;;;;;;4331063;33;20454;-75
2021/09/27 12:44:19;;;;;;;10.45;5.90;;;;;;;;;;4332100;33;20206;-78
2021/09/27 12:46:56;;;;;;;11.95;7.57;;;;;;;;;;4332661;33;20723;-77
2021/09/27 12:49:45;;;;;;;10.38;7.55;;;;;;;;;;4331321;33;20275;-77
2021/09/27 12:52:29;;;;;;;12.95;8.93;;;;;;;;;;4290619;33;20163;-76
2021/09/27 13:00:59;;;;;;;11.98;9.13;;;;;;;;;;4307793;33;20152;-76
2021/09/27 13:03:50;;;;;;;10.13;7.82;;;;;;;;;;4333118;33;20191;-77
2021/09/27 13:06:38;;;;;;;7.47;5.85;;;;;;;;;;4319539;33;20210;-77
2021/09/27 13:09:09;;;;;;;7.37;5.32;;;;;;;;;;4318409;33;20282;-78
2021/09/27 13:12:23;;;;;;;8.90;6.05;;;;;;;;;;4317215;33;20156;-77
2021/09/27 13:14:54;;;;;;;11.32;5.68;;;;;;;;;;4326657;33;20227;-78
2021/09/27 13:17:27;;;;;;;11.02;6.03;;;;;;;;;;4317660;33;20155;-77
2021/09/27 13:20:03;;;;;;;5.45;4.87;;;;;;;;;;4317404;33;20240;-79
2021/09/27 13:22:51;;;;;;;7.90;4.68;;;;;;;;;;4317422;33;20206;-78
2021/09/27 13:25:43;;;;;;;6.97;5.05;;;;;;;;;;4317052;33;20181;-78
2021/09/27 13:28:15;;;;;;;7.57;5.15;;;;;;;;;;4303322;33;20160;-77
2021/09/27 13:30:41;;;;;;;9.57;6.22;;;;;;;;;;4303007;33;20148;-78
2021/09/27 13:37:33;;;;;;;11.10;7.97;;;;;;;;;;4227473;34;20182;-79
2021/09/27 13:40:01;;;;;;;8.02;6.68;;;;;;;;;;4215180;34;20192;-78
2021/09/27 13:45:45;;;;;;;5.00;4.10;;;;;;;;;;4212852;34;20306;-77
2021/09/27 13:48:40;;;;;;;4.50;2.97;;;;;;;;;;4227759;34;20534;-78
2021/09/27 13:51:38;;;;;;;;;;;;;;;;;;;;;
2021/09/27 13:54:05;;;;;;;4.62;1.90;;;;;;;;;;4303619;33;20493;-82
2021/09/27 13:57:08;;;;;;;3.70;1.80;;;;;;;;;;4316643;33;20187;-78
2021/09/27 13:59:45;;;;;;;3.35;1.60;;;;;;;;;;4315037;33;20193;-79
2021/09/27 14:04:58;;;;;;;6.72;1.42;;;;;;;;;;4341248;33;20256;-79
2021/09/27 14:07:54;;;;;;;;;;;;;;;;;;;;;
2021/09/27 14:10:09;;;;;;;7.53;1.73;;;;;;;;;;4308309;33;20172;-80
2021/09/27 14:13:06;;;;;;;5.30;1.92;;;;;;;;;;4317368;33;20214;-80
2021/09/27 14:16:01;;;;;;;9.55;2.12;;;;;;;;;;4317601;33;20163;-79
2021/09/27 14:21:55;;;;;;;10.82;2.00;;;;;;;;;;4324116;33;20707;-79
2021/09/27 14:24:41;;;;;;;;;;;;;;;;;;;;;
2021/09/27 14:27:18;;;;;;;10.48;1.65;;;;;;;;;;4330466;33;20155;-79
2021/09/27 14:30:04;;;;;;;7.07;1.50;;;;;;;;;;4316750;33;20156;-79
2021/09/27 14:32:38;;;;;;;10.88;1.90;;;;;;;;;;4316851;33;20198;-79
2021/09/27 14:35:26;;;;;;;5.60;1.98;;;;;;;;;;4316690;33;20631;-79
2021/09/27 14:37:54;;;;;;;9.32;1.90;;;;;;;;;;4314044;33;20180;-79
2021/09/27 14:40:31;;;;;;;8.98;1.98;;;;;;;;;;4313797;33;20156;-79
2021/09/27 14:46:10;;;;;;;10.02;1.48;;;;;;;;;;4330348;33;20262;-79
2021/09/27 14:49:12;;;;;;;5.90;1.60;;;;;;;;;;4310520;33;20180;-79
2021/09/27 14:52:06;;;;;;;7.95;1.95;;;;;;;;;;4305731;33;20219;-80
2021/09/27 14:54:51;;;;;;;10.05;1.25;;;;;;;;;;4320845;33;20164;-79
2021/09/27 14:57:40;;;;;;;8.10;1.75;;;;;;;;;;4317110;33;20172;-80
2021/09/27 15:01:09;;;;;;;;;;;;;;;;;;;;;
2021/09/27 15:03:33;;;;;;;9.10;1.37;;;;;;;;;;4313552;33;20207;-79
2021/09/27 15:09:33;;;;;;;10.88;1.48;;;;;;;;;;4244897;33;20265;-80
2021/09/27 15:11:36;;;;;;;5.55;1.40;;;;;;;;;;4261370;33;20161;-80
2021/09/27 15:14:05;;;;;;;9.88;1.42;;;;;;;;;;4295686;33;20187;-80
2021/09/27 15:16:33;;;;;;;6.10;1.30;;;;;;;;;;4316638;33;20179;-80
2021/09/27 15:18:58;;;;;;;4.65;1.27;;;;;;;;;;4316329;33;20227;-80
2021/09/27 15:21:28;;;;;;;6.87;1.10;;;;;;;;;;4316957;33;20215;-80
2021/09/27 15:23:53;;;;;;;6.03;1.20;;;;;;;;;;4304715;33;20260;-79
2021/09/27 15:26:33;;;;;;;8.05;1.60;;;;;;;;;;4310913;33;20510;-79
2021/09/27 15:29:02;;;;;;;4.72;1.40;;;;;;;;;;4319520;33;20171;-79
2021/09/27 15:31:51;;;;;;;7.22;1.40;;;;;;;;;;4315694;33;20168;-79
2021/09/27 15:35:09;;;;;;;5.03;1.30;;;;;;;;;;4331125;33;20168;-79
2021/09/27 15:37:28;;;;;;;5.28;1.30;;;;;;;;;;4329866;33;20160;-80
2021/09/27 15:40:19;;;;;;;10.65;1.40;;;;;;;;;;4319483;33;20178;-78
2021/09/27 15:42:47;;;;;;;7.05;0.93;;;;;;;;;;4315783;33;20172;-79
2021/09/27 15:48:31;;;;;;;7.75;1.10;;;;;;;;;;4286172;33;20185;-78
2021/09/27 15:51:01;;;;;;;3.92;1.00;;;;;;;;;;4319570;33;20163;-79
2021/09/27 15:53:28;;;;;;;7.70;1.10;;;;;;;;;;4319199;33;20155;-79
2021/09/27 15:55:55;;;;;;;4.25;1.10;;;;;;;;;;4318942;33;20597;-79
2021/09/27 15:58:21;;;;;;;4.00;1.00;;;;;;;;;;4319142;33;20152;-79
2021/09/27 16:00:56;;;;;;;4.35;1.23;;;;;;;;;;4318618;33;20189;-77
2021/09/27 16:03:30;;;;;;;5.50;1.12;;;;;;;;;;4319082;33;20534;-78
2021/09/27 16:05:59;;;;;;;5.10;1.20;;;;;;;;;;4319075;33;20249;-79